KGAI/GAI METAR and TAF weather

Enter ICAO airport designator
Station Type Date Time Source
KGAI METAR 2020/01/18 23:56 UTC NOAA

KGAI 182356Z AUTO 19005KT 10SM OVC008 00/M01 A2997 RMK AO2 SLP170 P0001 60033 T00001011 10000 21017 56049 FZRANO


Station Type Date Time Source
KGAI Decoded METAR 2020/01/18 23:56 UTC NOAA

Station name not available
Jan 18, 2020 - 06:56 PM EST / 2020.01.18 2356 UTC
Wind: from the S (190 degrees) at 6 MPH (5 KT):0
Visibility: 10 mile(s):0
Sky conditions: overcast
Precipitation last hour: 0.01 inches
Temperature: 32.0 F (0.0 C)
Windchill: 26 F (-3 C):1
Dew Point: 30.0 F (-1.1 C)
Relative Humidity: 92%
Pressure (altimeter): 29.97 in. Hg (1014 hPa)
Pressure tendency: 0.14 inches (4.9 hPa) lower than three hours ago
ob: KGAI 182356Z AUTO 19005KT 10SM OVC008 00/M01 A2997 RMK AO2 SLP170 P0001 60033 T00001011 10000 21017 56049 FZRANO
cycle: 0

Station Type Date Time Source
KGAI TAF UTC NOAA

Error!

Example: see airport list